Time;durP1;ratioP1;P1;durP2;ratioP2;P2;SDS_P1;SDS_P2;PMS_P1;PMS_P2;Temp;Humidity;BMP_temperature;BMP_pressure;BME280_temperature;BME280_humidity;BME280_pressure;Samples;Min_cycle;Max_cycle;Signal;HPM_P1;HPM_P2
2022/06/26 00:00:28;;;;;;;3.30;1.80;;;;;;;;;;5023198;28;20439;-84
2022/06/26 00:02:54;;;;;;;2.20;1.47;;;;;;;;;;5019727;28;20614;-84
2022/06/26 00:05:20;;;;;;;2.73;2.03;;;;;;;;;;5021543;28;20444;-85
2022/06/26 00:07:46;;;;;;;3.63;2.10;;;;;;;;;;5016723;28;20468;-83
2022/06/26 00:10:12;;;;;;;2.20;1.80;;;;;;;;;;5020617;28;20780;-86
2022/06/26 00:12:38;;;;;;;2.20;1.93;;;;;;;;;;5019072;28;20516;-83
2022/06/26 00:15:04;;;;;;;1.40;1.20;;;20.90;99.90;;;;;;5033049;28;20997;-85
2022/06/26 00:17:30;;;;;;;4.23;1.73;;;;;;;;;;5019450;28;20528;-83
2022/06/26 00:19:57;;;;;;;1.97;1.77;;;;;;;;;;5023510;28;20500;-88
2022/06/26 00:22:23;;;;;;;4.40;1.77;;;;;;;;;;5019727;28;20457;-87
2022/06/26 00:24:49;;;;;;;3.33;2.20;;;;;;;;;;5028465;28;20548;-87
2022/06/26 00:27:15;;;;;;;2.43;2.23;;;;;;;;;;5027312;28;20429;-88
2022/06/26 00:29:41;;;;;;;3.93;2.43;;;;;;;;;;5024310;28;20490;-87
2022/06/26 00:32:07;;;;;;;5.07;2.27;;;21.10;99.90;;;;;;5021630;28;20448;-85
2022/06/26 00:34:33;;;;;;;4.10;2.67;;;;;;;;;;5016172;28;20519;-86
2022/06/26 00:36:59;;;;;;;2.90;2.50;;;;;;;;;;5016638;28;21038;-87
2022/06/26 00:39:25;;;;;;;3.20;2.07;;;;;;;;;;5020490;28;20984;-87
2022/06/26 00:41:54;;;;;;;2.70;2.40;;;;;;;;;;5022214;28;20456;-86
2022/06/26 00:44:23;;;;;;;5.50;2.60;;;21.00;99.90;;;;;;5019862;28;20465;-85
2022/06/26 00:46:49;;;;;;;7.03;3.23;;;;;;;;;;5016299;28;20436;-86
2022/06/26 00:49:15;;;;;;;5.40;2.83;;;;;;;;;;5017289;28;20444;-85
2022/06/26 00:51:44;;;;;;;5.87;2.70;;;20.80;99.90;;;;;;5025100;28;20931;-84
2022/06/26 00:54:10;;;;;;;3.20;2.50;;;21.00;99.90;;;;;;5017441;28;20531;-84
2022/06/26 00:56:37;;;;;;;2.37;2.17;;;20.70;99.90;;;;;;5016871;28;20437;-85
2022/06/26 00:59:03;;;;;;;3.30;2.60;;;20.70;99.90;;;;;;5015361;28;20433;-82
2022/06/26 01:01:29;;;;;;;2.83;2.57;;;;;;;;;;5016894;28;20443;-84
2022/06/26 01:03:55;;;;;;;3.00;2.70;;;;;;;;;;5018313;28;20444;-84
2022/06/26 01:06:21;;;;;;;5.97;2.63;;;;;;;;;;5017916;28;20464;-83
2022/06/26 01:08:47;;;;;;;5.10;2.90;;;;;;;;;;5018805;28;20511;-85
2022/06/26 01:11:20;;;;;;;3.10;2.33;;;20.40;99.90;;;;;;5019967;28;21555;-83
2022/06/26 01:13:48;;;;;;;8.13;2.60;;;20.40;99.90;;;;;;5017110;28;20444;-83
2022/06/26 01:16:15;;;;;;;3.10;2.10;;;20.20;99.90;;;;;;5017590;28;20475;-84
2022/06/26 01:18:42;;;;;;;2.47;2.27;;;20.20;99.90;;;;;;5018389;28;20448;-82
2022/06/26 01:21:08;;;;;;;2.03;1.57;;;;;;;;;;5024545;28;20448;-82
2022/06/26 01:23:34;;;;;;;1.77;1.67;;;;;;;;;;5023803;28;20461;-84
2022/06/26 01:26:00;;;;;;;2.20;2.00;;;;;;;;;;5017044;28;20872;-83
2022/06/26 01:28:26;;;;;;;2.33;1.90;;;;;;;;;;5018348;28;20436;-85
2022/06/26 01:30:52;;;;;;;5.87;2.10;;;;;;;;;;5024119;28;20436;-82
2022/06/26 01:33:18;;;;;;;1.83;1.70;;;;;;;;;;5017326;28;20433;-85
2022/06/26 01:35:43;;;;;;;2.33;1.47;;;20.20;99.90;;;;;;5015676;28;20491;-85
2022/06/26 01:38:17;;;;;;;2.23;1.47;;;20.20;99.90;;;;;;5021238;28;20448;-84
2022/06/26 01:40:45;;;;;;;2.70;1.80;;;20.20;99.90;;;;;;5019872;28;22136;-85
2022/06/26 01:43:13;;;;;;;3.17;1.70;;;20.10;99.90;;;;;;5018354;28;20513;-84
2022/06/26 01:45:45;;;;;;;1.80;1.40;;;20.10;99.90;;;;;;5018324;28;20497;-83
2022/06/26 01:48:12;;;;;;;2.67;1.23;;;20.10;99.90;;;;;;5016531;28;20440;-85
2022/06/26 01:50:37;;;;;;;1.63;1.53;;;20.10;99.90;;;;;;5019405;28;20424;-83
2022/06/26 01:53:03;;;;;;;1.90;1.67;;;20.20;99.90;;;;;;5016370;28;20440;-82
2022/06/26 01:55:29;;;;;;;2.40;1.40;;;;;;;;;;5020755;28;20265;-84
2022/06/26 01:57:55;;;;;;;1.20;1.10;;;;;;;;;;5017585;28;20432;-83
2022/06/26 02:00:21;;;;;;;4.23;1.47;;;;;;;;;;5022539;28;20432;-82
2022/06/26 02:02:47;;;;;;;3.73;1.50;;;19.80;99.90;;;;;;5017041;28;20461;-83
2022/06/26 02:05:12;;;;;;;1.50;1.13;;;19.80;99.90;;;;;;5014755;28;20531;-83
2022/06/26 02:07:38;;;;;;;1.20;1.10;;;19.70;99.90;;;;;;5013223;28;20235;-81
2022/06/26 02:15:34;;;;;;;0.90;0.70;;;;;;;;;;5026756;23;20523;-91
2022/06/26 02:18:00;;;;;;;1.20;1.10;;;;;;;;;;5001333;28;20443;-88
2022/06/26 02:20:26;;;;;;;1.93;1.20;;;;;;;;;;4981796;28;20446;-90
2022/06/26 02:22:52;;;;;;;1.60;1.00;;;;;;;;;;4995001;28;20466;-89
2022/06/26 02:25:17;;;;;;;1.57;1.20;;;;;;;;;;4994465;28;20468;-91
2022/06/26 02:27:43;;;;;;;1.70;1.23;;;;;;;;;;4984365;28;20438;-89
2022/06/26 02:30:10;;;;;;;3.73;1.53;;;19.00;99.90;;;;;;4985362;28;20439;-92
2022/06/26 02:32:36;;;;;;;2.40;1.70;;;;;;;;;;4985981;28;20448;-90
2022/06/26 02:35:02;;;;;;;0.77;0.77;;;;;;;;;;4988070;28;20836;-90
2022/06/26 02:37:28;;;;;;;5.23;1.30;;;;;;;;;;4981277;28;20493;-90
2022/06/26 02:39:54;;;;;;;3.90;1.33;;;;;;;;;;4987583;28;20847;-90
2022/06/26 02:42:20;;;;;;;2.50;1.47;;;;;;;;;;5002328;28;20469;-90
2022/06/26 02:44:46;;;;;;;2.73;1.27;;;;;;;;;;4987649;28;20533;-90
2022/06/26 02:47:12;;;;;;;4.37;1.10;;;;;;;;;;4985843;28;21075;-90
2022/06/26 02:49:38;;;;;;;3.80;1.20;;;;;;;;;;4971908;28;20917;-91
2022/06/26 02:52:04;;;;;;;1.53;0.83;;;18.50;99.90;;;;;;4993689;28;21047;-92
2022/06/26 02:54:30;;;;;;;2.20;1.17;;;;;;;;;;4996021;28;20502;-90
2022/06/26 02:56:57;;;;;;;1.50;1.10;;;;;;;;;;4988273;28;20797;-91
2022/06/26 02:59:23;;;;;;;1.83;0.90;;;;;;;;;;4992789;28;20434;-90
2022/06/26 03:01:49;;;;;;;1.67;0.90;;;;;;;;;;4984217;28;20463;-90
2022/06/26 03:04:15;;;;;;;2.33;0.93;;;;;;;;;;4986934;28;20829;-91
2022/06/26 03:06:44;;;;;;;2.10;0.90;;;18.30;99.90;;;;;;4992020;28;20433;-91
2022/06/26 03:09:10;;;;;;;1.30;1.03;;;;;;;;;;5007217;28;20537;-91
2022/06/26 03:11:36;;;;;;;2.63;1.20;;;;;;;;;;5020244;28;20433;-91
2022/06/26 03:14:02;;;;;;;5.10;1.17;;;;;;;;;;5004396;28;20526;-90
2022/06/26 03:16:28;;;;;;;1.30;1.20;;;;;;;;;;5005427;28;20445;-92
2022/06/26 03:19:03;;;;;;;1.93;1.10;;;;;;;;;;5017139;28;20438;-90
2022/06/26 03:21:34;;;;;;;3.27;1.70;;;;;;;;;;5017119;28;20433;-92
2022/06/26 03:24:06;;;;;;;1.97;1.40;;;;;;;;;;5018941;28;22240;-92
2022/06/26 03:26:41;;;;;;;1.03;0.73;;;;;;;;;;5015869;28;20430;-91
2022/06/26 03:29:08;;;;;;;1.33;0.90;;;18.30;99.90;;;;;;4995969;28;20907;-91
2022/06/26 03:31:34;;;;;;;1.23;0.70;;;;;;;;;;4997443;28;20533;-91
2022/06/26 03:34:00;;;;;;;1.60;0.90;;;;;;;;;;4992552;28;20482;-90
2022/06/26 03:36:29;;;;;;;4.40;1.40;;;;;;;;;;4993953;28;20474;-91
2022/06/26 03:38:55;;;;;;;3.43;1.57;;;;;;;;;;4993493;28;20548;-91
2022/06/26 03:41:21;;;;;;;3.70;1.20;;;;;;;;;;5007569;28;20426;-90
2022/06/26 03:43:48;;;;;;;2.73;0.90;;;;;;;;;;4991458;28;20462;-91
2022/06/26 03:46:14;;;;;;;1.93;1.33;;;;;;;;;;4987586;28;21039;-91
2022/06/26 03:48:40;;;;;;;1.73;1.00;;;;;;;;;;4993198;28;20445;-90
2022/06/26 03:51:06;;;;;;;1.47;0.90;;;;;;;;;;4984493;28;20456;-90
2022/06/26 03:53:33;;;;;;;2.77;1.17;;;18.60;99.90;;;;;;5006929;28;20448;-91
2022/06/26 03:55:59;;;;;;;1.77;1.00;;;;;;;;;;5011061;28;20472;-92
2022/06/26 03:58:25;;;;;;;2.40;1.50;;;;;;;;;;5001477;28;20778;-93
2022/06/26 04:00:52;;;;;;;1.63;1.07;;;18.70;99.90;;;;;;4994305;28;20438;-91
2022/06/26 04:03:18;;;;;;;1.10;1.00;;;;;;;;;;4995550;28;20500;-91
2022/06/26 04:05:44;;;;;;;5.90;1.27;;;;;;;;;;4982183;28;20926;-90
2022/06/26 04:08:10;;;;;;;1.60;1.40;;;;;;;;;;4991620;28;20441;-90
2022/06/26 04:10:36;;;;;;;1.00;0.90;;;;;;;;;;4994398;28;20440;-90
2022/06/26 04:13:05;;;;;;;5.10;1.50;;;19.10;99.90;;;;;;4995318;28;20974;-91
2022/06/26 04:15:32;;;;;;;2.70;1.17;;;19.20;99.90;;;;;;4996337;28;20522;-90
2022/06/26 04:17:58;;;;;;;1.27;0.97;;;;;;;;;;4984606;28;20446;-92
2022/06/26 04:20:30;;;;;;;2.93;1.17;;;;;;;;;;4993335;28;20438;-92
2022/06/26 04:22:57;;;;;;;1.13;1.03;;;19.60;99.90;;;;;;4993069;28;20450;-92
2022/06/26 04:25:23;;;;;;;1.00;0.90;;;;;;;;;;5004695;28;20454;-92
2022/06/26 04:27:49;;;;;;;2.40;1.10;;;;;;;;;;5003281;28;20996;-91
2022/06/26 04:30:15;;;;;;;1.20;0.80;;;;;;;;;;5005685;28;20421;-92
2022/06/26 04:32:41;;;;;;;2.40;1.07;;;;;;;;;;5006245;28;20435;-92
2022/06/26 04:35:09;;;;;;;2.60;1.27;;;24.60;99.90;;;;;;5000976;28;20457;-91
2022/06/26 04:37:38;;;;;;;1.97;1.20;;;;;;;;;;4995400;28;20431;-93
2022/06/26 04:40:13;;;;;;;2.27;1.20;;;23.50;99.90;;;;;;4992943;28;20506;-92
2022/06/26 04:42:41;;;;;;;1.27;1.10;;;;;;;;;;4993017;28;21108;-92
2022/06/26 04:45:07;;;;;;;2.00;1.20;;;;;;;;;;4996624;28;20456;-91
2022/06/26 04:47:33;;;;;;;1.17;0.90;;;;;;;;;;4983326;28;20430;-91
2022/06/26 04:49:59;;;;;;;1.60;1.50;;;22.80;99.90;;;;;;4988268;28;20434;-90
2022/06/26 04:52:25;;;;;;;1.97;1.00;;;;;;;;;;4993328;28;20433;-92
2022/06/26 04:54:51;;;;;;;1.20;1.10;;;;;;;;;;4983900;28;20517;-91
2022/06/26 04:57:18;;;;;;;3.70;1.50;;;;;;;;;;4995467;28;20446;-90
2022/06/26 04:59:44;;;;;;;1.63;1.23;;;;;;;;;;4980028;28;20456;-90
2022/06/26 05:02:10;;;;;;;2.50;1.30;;;;;;;;;;4997745;28;20477;-90
2022/06/26 05:04:36;;;;;;;2.97;1.70;;;;;;;;;;4993704;28;20454;-91
2022/06/26 05:07:02;;;;;;;1.57;1.33;;;;;;;;;;4997380;28;20434;-92
2022/06/26 05:09:28;;;;;;;1.73;1.10;;;;;;;;;;5002565;28;20442;-91
2022/06/26 05:11:56;;;;;;;1.40;1.30;;;;;;;;;;5006324;28;20438;-92
2022/06/26 05:14:22;;;;;;;2.07;1.50;;;;;;;;;;4993268;28;21202;-91
2022/06/26 05:16:49;;;;;;;1.40;1.30;;;;;;;;;;4992193;28;20438;-92
2022/06/26 05:19:15;;;;;;;2.17;1.17;;;;;;;;;;4997689;28;20446;-92
2022/06/26 05:21:41;;;;;;;2.90;1.33;;;;;;;;;;4997198;28;20435;-90
2022/06/26 05:24:07;;;;;;;1.13;0.90;;;;;;;;;;4991978;28;20452;-93
2022/06/26 05:26:33;;;;;;;1.17;1.07;;;;;;;;;;5010060;28;20473;-92
2022/06/26 05:29:02;;;;;;;2.13;0.60;;;;;;;;;;4986535;28;20454;-91
2022/06/26 05:31:28;;;;;;;2.80;1.23;;;;;;;;;;4997112;28;20431;-92
2022/06/26 05:33:54;;;;;;;4.10;1.30;;;;;;;;;;5004753;28;20437;-91
2022/06/26 05:36:22;;;;;;;4.80;1.37;;;;;;;;;;4994202;28;20438;-91
2022/06/26 05:38:51;;;;;;;1.10;1.00;;;;;;;;;;4990607;28;20430;-92
2022/06/26 05:41:20;;;;;;;1.60;1.20;;;;;;;;;;4997390;28;20442;-91
2022/06/26 05:43:57;;;;;;;1.83;1.63;;;;;;;;;;4988515;28;20521;-91
2022/06/26 05:46:23;;;;;;;1.93;1.20;;;;;;;;;;5001607;28;20454;-93
2022/06/26 05:48:49;;;;;;;1.43;1.33;;;;;;;;;;4995855;28;20439;-93
2022/06/26 05:51:15;;;;;;;1.30;1.10;;;;;;;;;;4990247;28;20501;-91
2022/06/26 05:53:41;;;;;;;1.17;1.07;;;;;;;;;;4969604;28;20451;-90
2022/06/26 05:56:07;;;;;;;1.87;1.50;;;;;;;;;;4972606;28;20446;-91
2022/06/26 05:58:33;;;;;;;1.30;1.17;;;;;;;;;;4985702;28;20446;-91
2022/06/26 06:00:59;;;;;;;2.43;1.77;;;;;;;;;;4989794;28;20444;-89
2022/06/26 06:03:25;;;;;;;1.90;1.70;;;;;;;;;;4983441;28;20462;-91
2022/06/26 06:05:51;;;;;;;2.37;1.50;;;;;;;;;;4983681;28;20529;-90
2022/06/26 06:08:17;;;;;;;2.93;1.27;;;;;;;;;;4988036;28;20438;-91
2022/06/26 06:10:43;;;;;;;2.63;1.90;;;;;;;;;;4979961;28;20425;-91
2022/06/26 06:13:10;;;;;;;2.17;1.40;;;33.90;99.90;;;;;;4995211;28;20848;-89
2022/06/26 06:15:36;;;;;;;1.50;1.40;;;;;;;;;;4981449;28;20541;-90
2022/06/26 06:18:02;;;;;;;1.63;1.10;;;;;;;;;;4989338;28;21079;-91
2022/06/26 06:20:29;;;;;;;1.87;1.77;;;;;;;;;;4994322;28;20426;-91
2022/06/26 06:23:04;;;;;;;3.10;2.80;;;41.70;56.10;;;;;;4995678;28;20540;-91
2022/06/26 06:25:30;;;;;;;4.30;4.10;;;;;;;;;;4990114;28;20584;-92
2022/06/26 06:27:58;;;;;;;5.70;5.43;;;;;;;;;;5007165;28;20425;-92
2022/06/26 06:30:25;;;;;;;7.50;5.30;;;;;;;;;;4999285;28;20440;-91
2022/06/26 06:32:51;;;;;;;5.53;5.23;;;38.80;55.60;;;;;;4991290;28;20444;-92
2022/06/26 06:35:17;;;;;;;5.80;5.60;;;;;;;;;;4985559;28;20452;-92
2022/06/26 06:37:44;;;;;;;6.50;6.20;;;39.90;52.50;;;;;;4987752;28;20468;-91
2022/06/26 06:40:11;;;;;;;6.50;6.27;;;40.60;49.40;;;;;;5006724;28;20445;-93
2022/06/26 06:42:37;;;;;;;7.53;7.10;;;;;;;;;;5012633;28;20469;-91
2022/06/26 06:45:04;;;;;;;7.07;6.77;;;;;;;;;;5011640;28;20476;-91
2022/06/26 06:47:30;;;;;;;8.67;8.33;;;;;;;;;;5010632;28;20524;-91
2022/06/26 06:50:00;;;;;;;9.40;8.90;;;;;;;;;;4995201;28;20441;-91
2022/06/26 06:52:26;;;;;;;9.00;8.70;;;;;;;;;;4990835;28;20488;-90
2022/06/26 06:54:52;;;;;;;10.37;9.87;;;;;;;;;;4985180;28;21582;-91
2022/06/26 06:57:18;;;;;;;10.60;9.80;;;;;;;;;;4991387;28;20434;-91
2022/06/26 06:59:44;;;;;;;9.90;9.50;;;;;;;;;;5004071;28;20440;-90
2022/06/26 07:02:10;;;;;;;9.70;9.30;;;;;;;;;;4983256;28;20472;-92
2022/06/26 07:04:36;;;;;;;6.83;6.53;;;;;;;;;;4992696;28;20483;-91
2022/06/26 07:07:04;;;;;;;6.40;6.20;;;;;;;;;;4993109;28;20477;-90
2022/06/26 07:09:31;;;;;;;6.10;5.90;;;32.90;54.20;;;;;;4996832;28;20998;-90
2022/06/26 07:11:58;;;;;;;6.57;5.90;;;;;;;;;;5004381;28;20444;-91
2022/06/26 07:14:24;;;;;;;5.30;5.10;;;;;;;;;;4986696;28;20497;-90
2022/06/26 07:16:50;;;;;;;5.50;5.30;;;;;;;;;;4999495;28;20538;-89
2022/06/26 07:19:16;;;;;;;5.60;5.40;;;;;;;;;;4981459;28;20442;-91
2022/06/26 07:21:43;;;;;;;4.70;4.50;;;;;;;;;;4987915;28;20449;-92
2022/06/26 07:24:10;;;;;;;4.17;3.97;;;;;;;;;;4974563;28;20468;-91
2022/06/26 07:26:36;;;;;;;4.20;3.90;;;;;;;;;;4988673;28;20427;-92
2022/06/26 07:29:02;;;;;;;4.17;3.87;;;;;;;;;;4986033;28;20443;-90
2022/06/26 07:31:28;;;;;;;3.20;3.10;;;;;;;;;;4981025;28;20441;-90
2022/06/26 07:36:38;;;;;;;3.93;3.63;;;;;;;;;;4980930;28;21197;-90
2022/06/26 07:39:04;;;;;;;4.20;3.97;;;;;;;;;;4988450;28;20505;-92
2022/06/26 07:41:30;;;;;;;3.70;3.50;;;;;;;;;;4981038;28;20445;-92
2022/06/26 07:43:56;;;;;;;3.03;2.87;;;;;;;;;;4972124;28;21552;-89
2022/06/26 07:46:22;;;;;;;4.63;3.80;;;;;;;;;;4971645;28;20443;-90
2022/06/26 07:48:48;;;;;;;4.20;4.00;;;;;;;;;;4954544;28;20440;-91
2022/06/26 07:51:14;;;;;;;4.07;3.87;;;;;;;;;;4957128;28;20451;-89
2022/06/26 07:53:40;;;;;;;4.90;4.10;;;;;;;;;;4962352;28;20451;-88
2022/06/26 07:56:06;;;;;;;5.03;4.73;;;;;;;;;;4970921;28;20491;-91
2022/06/26 07:58:32;;;;;;;6.30;6.00;;;;;;;;;;4986440;28;22293;-89
2022/06/26 08:00:58;;;;;;;6.20;5.90;;;;;;;;;;4985213;28;20440;-91
2022/06/26 08:03:24;;;;;;;6.67;6.37;;;;;;;;;;4997084;28;21117;-90
2022/06/26 08:05:50;;;;;;;6.07;5.77;;;;;;;;;;4981718;28;20511;-92
2022/06/26 08:08:17;;;;;;;6.30;6.10;;;;;;;;;;4985237;28;20503;-92
2022/06/26 08:10:43;;;;;;;6.77;6.47;;;;;;;;;;4993201;28;20481;-92
2022/06/26 08:13:09;;;;;;;6.67;6.37;;;;;;;;;;4990614;28;20435;-91
2022/06/26 08:15:35;;;;;;;6.63;6.33;;;35.20;53.30;;;;;;4996744;28;20957;-92
2022/06/26 08:18:01;;;;;;;6.53;6.23;;;;;;;;;;4989516;28;20449;-89
2022/06/26 08:20:27;;;;;;;7.77;7.47;;;;;;;;;;4964029;28;20435;-91
2022/06/26 08:22:53;;;;;;;7.07;6.77;;;;;;;;;;4982613;28;20475;-90
2022/06/26 08:25:19;;;;;;;7.13;6.83;;;;;;;;;;4977523;28;20499;-90
2022/06/26 08:27:45;;;;;;;7.43;7.00;;;;;;;;;;4986789;28;20189;-90
2022/06/26 08:30:11;;;;;;;6.97;6.67;;;;;;;;;;4993784;28;20195;-89
2022/06/26 08:32:38;;;;;;;7.37;7.07;;;;;;;;;;4982812;28;20206;-91
2022/06/26 08:35:07;;;;;;;6.40;6.10;;;35.30;54.10;;;;;;4994136;28;20468;-87
2022/06/26 08:37:33;;;;;;;7.10;6.80;;;;;;;;;;4992325;28;20462;-91
2022/06/26 08:39:59;;;;;;;7.20;6.87;;;;;;;;;;4993832;28;20432;-90
2022/06/26 08:42:26;;;;;;;6.10;5.90;;;36.80;52.80;;;;;;4985712;28;20202;-91
2022/06/26 08:44:56;;;;;;;7.10;6.80;;;36.20;50.00;;;;;;4999004;28;20463;-90
2022/06/26 08:47:24;;;;;;;7.23;6.93;;;36.10;50.40;;;;;;4999755;28;21625;-91
2022/06/26 08:49:51;;;;;;;7.83;7.43;;;35.60;51.20;;;;;;4980979;28;20447;-91
2022/06/26 08:52:20;;;;;;;7.33;7.03;;;36.20;51.60;;;;;;4976655;28;20444;-91
2022/06/26 08:54:46;;;;;;;7.50;7.20;;;;;;;;;;4999949;28;20837;-89
2022/06/26 08:57:15;;;;;;;10.60;8.40;;;;;;;;;;5004385;28;20449;-93
2022/06/26 08:59:41;;;;;;;7.67;7.37;;;;;;;;;;4994789;28;20444;-92
2022/06/26 09:02:07;;;;;;;8.40;8.00;;;;;;;;;;4985808;28;20468;-91
2022/06/26 09:04:33;;;;;;;8.23;7.93;;;;;;;;;;4973279;28;20577;-90
2022/06/26 09:06:59;;;;;;;7.60;7.10;;;;;;;;;;4983465;28;20429;-87
2022/06/26 09:09:28;;;;;;;6.67;6.37;;;34.00;53.50;;;;;;5001534;28;20447;-88
2022/06/26 09:11:59;;;;;;;6.83;6.53;;;34.20;53.30;;;;;;5007618;28;21018;-89
2022/06/26 09:14:26;;;;;;;7.80;7.40;;;34.10;52.50;;;;;;4979517;28;20455;-88
2022/06/26 09:16:52;;;;;;;7.50;7.00;;;32.40;54.40;;;;;;4965516;28;20501;-88
2022/06/26 09:19:24;;;;;;;7.07;6.63;;;31.90;56.70;;;;;;4973123;28;20441;-87
2022/06/26 09:21:51;;;;;;;5.70;5.40;;;32.60;57.90;;;;;;4970939;28;20920;-88
2022/06/26 09:24:21;;;;;;;5.97;5.70;;;33.30;55.20;;;;;;4993414;28;20457;-89
2022/06/26 09:27:02;;;;;;;5.90;5.60;;;33.30;55.00;;;;;;4987999;28;20442;-89
2022/06/26 09:29:28;;;;;;;5.43;5.13;;;;;;;;;;4980082;28;20468;-88
2022/06/26 09:31:54;;;;;;;6.87;6.57;;;;;;;;;;4992242;28;20427;-90
2022/06/26 09:34:22;;;;;;;6.80;6.50;;;34.50;54.40;;;;;;4966506;28;20885;-89
2022/06/26 09:37:01;;;;;;;6.20;5.80;;;33.80;53.40;;;;;;4972471;28;20459;-90
2022/06/26 09:39:27;;;;;;;5.87;5.67;;;;;;;;;;4967857;28;22490;-91
2022/06/26 09:41:53;;;;;;;5.93;5.63;;;34.20;53.40;;;;;;4976050;28;20811;-89
2022/06/26 09:44:22;;;;;;;6.33;6.03;;;34.00;54.60;;;;;;4969345;28;20482;-89
2022/06/26 09:46:49;;;;;;;6.70;6.40;;;;;;;;;;4983139;28;20443;-89
2022/06/26 09:49:16;;;;;;;7.07;6.77;;;36.10;51.30;;;;;;4968335;28;20812;-88
2022/06/26 09:51:43;;;;;;;7.43;7.13;;;37.00;49.80;;;;;;4969833;28;21702;-89
2022/06/26 09:54:09;;;;;;;8.47;8.17;;;;;;;;;;4978611;28;21016;-90
2022/06/26 09:56:35;;;;;;;9.27;8.87;;;;;;;;;;4969321;28;20774;-87
2022/06/26 09:59:01;;;;;;;9.57;9.17;;;;;;;;;;4981229;28;20422;-88
2022/06/26 10:07:01;;;;;;;8.63;7.87;;;37.80;49.00;;;;;;4982084;28;20549;-89
2022/06/26 10:09:29;;;;;;;9.20;8.80;;;39.40;48.60;;;;;;4994866;28;21287;-90
2022/06/26 10:11:58;;;;;;;9.80;9.40;;;38.10;47.30;;;;;;4980322;28;20437;-91
2022/06/26 10:14:28;;;;;;;8.80;8.40;;;36.40;49.20;;;;;;4985036;28;20608;-90
2022/06/26 10:17:20;;;;;;;205.90;168.67;;;34.80;51.90;;;;;;4984058;28;20445;-90
2022/06/26 10:19:50;;;;;;;33.23;29.80;;;34.10;53.50;;;;;;4972898;28;20447;-89
2022/06/26 10:22:16;;;;;;;9.03;8.43;;;;;;;;;;4981998;28;20509;-88
2022/06/26 10:24:57;;;;;;;24.33;19.50;;;32.40;56.60;;;;;;4989398;28;21201;-87
2022/06/26 10:27:25;;;;;;;9.47;8.70;;;32.70;58.80;;;;;;4993881;28;20442;-89
2022/06/26 10:29:51;;;;;;;46.03;38.33;;;;;;;;;;4983272;28;20479;-89
2022/06/26 10:32:23;;;;;;;20.77;15.13;;;31.30;59.30;;;;;;4987634;28;20508;-89
2022/06/26 10:34:56;;;;;;;5.47;5.17;;;32.70;57.60;;;;;;4974961;28;20459;-89
2022/06/26 10:37:22;;;;;;;9.10;8.40;;;;;;;;;;4980601;28;21317;-89
2022/06/26 10:39:51;;;;;;;7.00;6.40;;;32.30;59.70;;;;;;4993966;28;20553;-88
2022/06/26 10:45:04;;;;;;;4.23;3.93;;;;;;;;;;4982221;28;20573;-89
2022/06/26 10:47:48;;;;;;;7.67;6.90;;;30.00;73.00;;;;;;4983071;28;21071;-89
2022/06/26 10:50:26;;;;;;;4.03;3.73;;;29.40;65.50;;;;;;4981734;28;20447;-89
2022/06/26 10:52:52;;;;;;;7.30;5.87;;;;;;;;;;4992687;28;21221;-87
2022/06/26 10:55:18;;;;;;;5.87;4.97;;;;;;;;;;4979422;28;20676;-88
2022/06/26 10:57:44;;;;;;;2.93;2.73;;;;;;;;;;4991935;28;20487;-89
2022/06/26 11:00:12;;;;;;;2.07;1.87;;;28.50;76.90;;;;;;4983883;28;20443;-89
2022/06/26 11:02:41;;;;;;;1.93;1.83;;;28.00;76.40;;;;;;4977305;28;20553;-88
2022/06/26 11:05:09;;;;;;;3.70;2.40;;;27.90;82.40;;;;;;4986255;28;20492;-89
2022/06/26 11:07:46;;;;;;;1.73;1.63;;;27.40;91.80;;;;;;4980703;28;21508;-88
2022/06/26 11:10:17;;;;;;;2.40;1.63;;;27.90;83.90;;;;;;4978359;28;20448;-90
2022/06/26 11:12:49;;;;;;;1.83;1.70;;;27.90;84.80;;;;;;4989792;28;20440;-90
2022/06/26 11:15:32;;;;;;;2.10;1.50;;;27.90;83.40;;;;;;5009459;28;20467;-89
2022/06/26 11:18:03;;;;;;;1.50;1.40;;;27.30;84.20;;;;;;4973462;28;20465;-90
2022/06/26 11:21:01;;;;;;;2.13;1.93;;;27.70;88.10;;;;;;4988476;28;20454;-90
2022/06/26 11:23:32;;;;;;;2.73;1.40;;;28.40;88.90;;;;;;4972079;28;21825;-89
2022/06/26 11:26:08;;;;;;;2.53;1.90;;;28.00;86.30;;;;;;4989099;28;21096;-88
2022/06/26 11:28:43;;;;;;;1.73;1.63;;;28.70;90.10;;;;;;4981528;28;20447;-89
2022/06/26 11:31:21;;;;;;;2.10;1.37;;;29.30;83.90;;;;;;4975948;28;20479;-89
2022/06/26 11:33:47;;;;;;;2.53;1.57;;;;;;;;;;4984660;28;20448;-88
2022/06/26 11:36:15;;;;;;;2.50;1.73;;;30.00;81.40;;;;;;4982875;28;20904;-88
2022/06/26 11:38:50;;;;;;;1.60;1.50;;;30.00;80.30;;;;;;4977747;28;20780;-89
2022/06/26 11:41:17;;;;;;;2.57;2.37;;;30.10;76.20;;;;;;4979151;28;20441;-89
2022/06/26 11:43:50;;;;;;;2.30;2.20;;;29.80;80.00;;;;;;4979224;28;21020;-88
2022/06/26 11:46:16;;;;;;;1.80;1.70;;;;;;;;;;4974061;28;20452;-89
2022/06/26 11:48:42;;;;;;;1.80;1.70;;;;;;;;;;4986595;28;20434;-88
2022/06/26 11:51:12;;;;;;;2.47;2.27;;;30.00;77.70;;;;;;5006518;28;20813;-89
2022/06/26 11:53:39;;;;;;;2.80;2.60;;;;;;;;;;4976590;28;20442;-89
2022/06/26 11:56:05;;;;;;;2.00;1.90;;;;;;;;;;4991585;28;20908;-88
2022/06/26 11:58:33;;;;;;;2.37;2.17;;;29.40;83.00;;;;;;4964306;28;20442;-88
2022/06/26 12:01:18;;;;;;;2.47;2.30;;;29.40;81.80;;;;;;4972923;28;20490;-88
2022/06/26 12:03:47;;;;;;;1.80;1.70;;;28.80;85.70;;;;;;4986574;28;20456;-88
2022/06/26 12:06:25;;;;;;;2.50;2.30;;;29.00;85.70;;;;;;4970579;28;20449;-89
2022/06/26 12:08:51;;;;;;;3.13;1.90;;;;;;;;;;4979479;28;20447;-89
2022/06/26 12:11:17;;;;;;;4.40;2.07;;;;;;;;;;4989210;28;20427;-89
2022/06/26 12:13:43;;;;;;;1.87;1.77;;;;;;;;;;4990795;28;20556;-89
2022/06/26 12:16:10;;;;;;;1.90;1.80;;;29.30;81.20;;;;;;4979523;28;20469;-88
2022/06/26 12:18:37;;;;;;;4.13;1.80;;;29.10;81.30;;;;;;4988872;28;20995;-89
2022/06/26 12:21:14;;;;;;;2.40;1.80;;;28.80;80.60;;;;;;4983570;28;20450;-90
2022/06/26 12:23:43;;;;;;;4.33;2.23;;;28.50;82.00;;;;;;4974990;28;20478;-90
2022/06/26 12:26:10;;;;;;;1.87;1.70;;;29.10;84.50;;;;;;4988121;28;20613;-89
2022/06/26 12:28:48;;;;;;;2.00;1.80;;;29.20;82.20;;;;;;4982568;28;20435;-89
2022/06/26 12:31:15;;;;;;;3.00;1.80;;;29.00;80.30;;;;;;4976469;28;20443;-88
2022/06/26 12:33:41;;;;;;;2.50;1.77;;;;;;;;;;4982426;28;20440;-86
2022/06/26 12:36:08;;;;;;;2.53;1.70;;;28.70;83.00;;;;;;4974539;28;20456;-88
2022/06/26 12:38:34;;;;;;;2.00;1.87;;;29.20;85.30;;;;;;4979192;28;20540;-89
2022/06/26 12:41:02;;;;;;;2.20;2.00;;;29.30;83.00;;;;;;4976721;28;20477;-88
2022/06/26 12:43:28;;;;;;;3.53;2.20;;;;;;;;;;4976708;28;20467;-88
2022/06/26 12:45:54;;;;;;;2.60;2.40;;;;;;;;;;4973114;28;20460;-87
2022/06/26 12:48:20;;;;;;;1.80;1.70;;;;;;;;;;4971307;28;21742;-89
2022/06/26 12:50:46;;;;;;;2.43;2.00;;;;;;;;;;4993997;28;20809;-89
2022/06/26 12:53:12;;;;;;;1.67;1.57;;;;;;;;;;4980901;28;21095;-89
2022/06/26 12:55:38;;;;;;;2.03;1.93;;;;;;;;;;4973568;28;20488;-89
2022/06/26 12:58:04;;;;;;;1.97;1.87;;;;;;;;;;4970378;28;20443;-87
2022/06/26 13:00:30;;;;;;;1.87;1.50;;;;;;;;;;4974988;28;20878;-88
2022/06/26 13:02:56;;;;;;;1.60;1.50;;;;;;;;;;4992365;28;20464;-89
2022/06/26 13:05:22;;;;;;;4.93;1.73;;;;;;;;;;4984293;28;20541;-88
2022/06/26 13:07:48;;;;;;;2.50;1.87;;;;;;;;;;4978140;28;20437;-88
2022/06/26 13:10:14;;;;;;;1.70;1.60;;;;;;;;;;4974878;28;20466;-87
2022/06/26 13:12:40;;;;;;;2.10;1.90;;;;;;;;;;4971479;28;20470;-87
2022/06/26 13:15:06;;;;;;;2.13;1.90;;;;;;;;;;4980928;28;20491;-89
2022/06/26 13:17:32;;;;;;;1.83;1.73;;;;;;;;;;4988132;28;20538;-87
2022/06/26 13:19:58;;;;;;;1.53;1.40;;;;;;;;;;4976353;28;21064;-88
2022/06/26 13:22:24;;;;;;;2.07;1.77;;;;;;;;;;4976241;28;20470;-88
2022/06/26 13:24:50;;;;;;;1.67;1.57;;;;;;;;;;4981093;28;22745;-88
2022/06/26 13:27:16;;;;;;;1.73;1.60;;;;;;;;;;4973261;28;20436;-90
2022/06/26 13:29:43;;;;;;;2.93;1.90;;;;;;;;;;4968988;28;20449;-88
2022/06/26 13:32:09;;;;;;;1.63;1.53;;;27.50;93.60;;;;;;4985284;28;20875;-88
2022/06/26 13:34:35;;;;;;;3.43;2.23;;;;;;;;;;4979237;28;20459;-87
2022/06/26 13:37:01;;;;;;;2.17;1.63;;;;;;;;;;4986874;28;20473;-88
2022/06/26 13:39:27;;;;;;;1.70;1.60;;;;;;;;;;4966497;28;20862;-87
2022/06/26 13:41:53;;;;;;;2.70;1.70;;;;;;;;;;4982004;28;20572;-87
2022/06/26 13:44:19;;;;;;;2.00;1.60;;;;;;;;;;4978281;28;20487;-88
2022/06/26 13:46:46;;;;;;;3.10;1.90;;;;;;;;;;4971494;28;20434;-89
2022/06/26 13:49:12;;;;;;;1.50;1.40;;;;;;;;;;4975558;28;20442;-89
2022/06/26 13:51:39;;;;;;;2.10;1.90;;;;;;;;;;4968640;28;20484;-88
2022/06/26 13:54:05;;;;;;;1.50;1.40;;;;;;;;;;4969468;28;20447;-87
2022/06/26 13:56:31;;;;;;;1.70;1.60;;;;;;;;;;4969440;28;20448;-88
2022/06/26 13:58:57;;;;;;;1.47;1.37;;;;;;;;;;4969329;28;20524;-87
2022/06/26 14:01:24;;;;;;;2.30;1.70;;;28.70;83.00;;;;;;4971873;28;20837;-88
2022/06/26 14:03:50;;;;;;;1.50;1.40;;;;;;;;;;4965791;28;20474;-88
2022/06/26 14:06:16;;;;;;;1.77;1.57;;;;;;;;;;4972755;28;21293;-88
2022/06/26 14:08:42;;;;;;;2.13;1.77;;;;;;;;;;4965234;28;20434;-88
2022/06/26 14:11:08;;;;;;;2.73;1.63;;;27.60;92.60;;;;;;4973469;28;20452;-87
2022/06/26 14:13:34;;;;;;;1.30;1.20;;;;;;;;;;4963241;28;20451;-87
2022/06/26 14:16:00;;;;;;;1.63;1.53;;;;;;;;;;4973969;28;20613;-88
2022/06/26 14:18:26;;;;;;;2.00;1.80;;;;;;;;;;4984262;28;20535;-88